Time;durP1;ratioP1;P1;durP2;ratioP2;P2;SDS_P1;SDS_P2;PMS_P1;PMS_P2;Temp;Humidity;BMP_temperature;BMP_pressure;BME280_temperature;BME280_humidity;BME280_pressure;Samples;Min_cycle;Max_cycle;Signal;HPM_P1;HPM_P2
2023/03/18 00:01:02;;;;;;;100.50;44.48;;;;;;;-1.08;74.65;101003.18;1444935;89;21573;-76
2023/03/18 00:03:31;;;;;;;122.25;51.15;;;;;;;-1.10;75.48;100997.65;1468451;88;21604;-78
2023/03/18 00:06:08;;;;;;;114.85;52.13;;;;;;;-1.11;74.66;100999.41;1453659;89;21425;-77
2023/03/18 00:08:35;;;;;;;130.75;56.08;;;;;;;-1.11;74.42;101003.76;1459645;88;21463;-78
2023/03/18 00:11:04;;;;;;;142.25;60.28;;;;;;;-1.14;75.22;101004.72;1462418;88;21641;-77
2023/03/18 00:13:33;;;;;;;152.95;63.83;;;;;;;-1.18;74.88;101001.83;1463070;88;21625;-77
2023/03/18 00:16:01;;;;;;;135.07;57.23;;;;;;;-1.23;75.23;100998.58;1458330;88;21522;-77
2023/03/18 00:18:30;;;;;;;149.07;62.15;;;;;;;-1.25;75.52;101001.22;1457599;88;22346;-78
2023/03/18 00:20:57;;;;;;;133.43;57.30;;;;;;;-1.30;76.06;101003.59;1465331;88;21345;-78
2023/03/18 00:23:25;;;;;;;140.00;57.95;;;;;;;-1.33;75.84;100998.52;1452282;89;21419;-77
2023/03/18 00:25:55;;;;;;;131.52;54.55;;;;;;;-1.39;76.16;100993.95;1466566;88;21397;-78
2023/03/18 00:28:23;;;;;;;94.72;40.98;;;;;;;-1.42;75.30;100983.68;1461951;88;21604;-77
2023/03/18 00:30:50;;;;;;;83.92;36.90;;;;;;;-1.44;75.45;100989.41;1461148;88;21412;-78
2023/03/18 00:33:18;;;;;;;63.68;29.27;;;;;;;-1.51;75.01;100986.63;1459623;88;21465;-77
2023/03/18 00:35:46;;;;;;;72.72;32.85;;;;;;;-1.56;74.22;100980.75;1462798;88;21493;-77
2023/03/18 00:38:19;;;;;;;71.85;31.68;;;;;;;-1.60;74.31;100980.48;1455073;88;21433;-77
2023/03/18 00:40:52;;;;;;;60.78;31.07;;;;;;;-1.63;74.43;100980.59;1462206;89;21441;-77
2023/03/18 00:43:13;;;;;;;65.30;32.65;;;;;;;-1.64;74.78;100981.48;1462183;89;21434;-77
2023/03/18 00:45:40;;;;;;;68.35;32.80;;;;;;;-1.67;75.41;100982.89;1453483;88;22528;-77
2023/03/18 00:48:07;;;;;;;64.00;30.52;;;;;;;-1.70;75.51;100978.66;1462160;89;22388;-77
2023/03/18 00:50:34;;;;;;;68.25;32.85;;;;;;;-1.70;75.11;100977.81;1462596;89;21855;-77
2023/03/18 00:53:01;;;;;;;64.58;31.90;;;;;;;-1.72;75.60;100974.00;1456871;88;21481;-79
2023/03/18 00:55:28;;;;;;;66.65;30.43;;;;;;;-1.73;75.71;100977.93;1447699;89;22913;-78
2023/03/18 00:57:54;;;;;;;70.50;30.80;;;;;;;-1.73;75.67;100974.88;1461943;88;21478;-78
2023/03/18 01:00:21;;;;;;;99.07;45.25;;;;;;;-1.78;75.97;100972.92;1460793;88;21479;-78
2023/03/18 01:02:48;;;;;;;75.37;37.65;;;;;;;-1.83;76.25;100965.30;1462228;88;22217;-79
2023/03/18 01:05:15;;;;;;;101.82;46.00;;;;;;;-1.83;74.53;100961.40;1456339;88;21567;-77
2023/03/18 01:07:42;;;;;;;81.20;36.77;;;;;;;-1.82;74.79;100961.78;1455664;88;21427;-76
2023/03/18 01:10:11;;;;;;;83.37;38.33;;;;;;;-1.80;74.86;100966.09;1464288;88;21501;-77
2023/03/18 01:12:39;;;;;;;81.72;35.80;;;;;;;-1.78;74.90;100965.56;1456002;88;21391;-76
2023/03/18 01:15:11;;;;;;;78.67;34.45;;;;;;;-1.79;74.88;100970.38;1456522;89;21345;-76
2023/03/18 01:17:38;;;;;;;86.22;38.60;;;;;;;-1.81;75.66;100967.84;1447297;89;21596;-76
2023/03/18 01:20:05;;;;;;;78.50;34.25;;;;;;;-1.82;74.90;100957.89;1463791;88;21361;-76
2023/03/18 01:22:32;;;;;;;88.80;41.08;;;;;;;-1.86;75.96;100960.67;1464170;88;21368;-76
2023/03/18 01:24:58;;;;;;;84.15;38.20;;;;;;;-1.88;75.32;100967.20;1456716;88;21573;-76
2023/03/18 01:27:25;;;;;;;86.12;38.63;;;;;;;-1.90;75.38;100962.54;1460756;88;22352;-77
2023/03/18 01:29:52;;;;;;;92.88;40.23;;;;;;;-1.94;74.82;100958.80;1462658;88;21308;-77
2023/03/18 01:32:18;;;;;;;86.28;38.48;;;;;;;-1.96;74.54;100954.11;1460833;89;21345;-77
2023/03/18 01:34:44;;;;;;;107.80;43.50;;;;;;;-1.95;74.79;100959.71;1463031;89;21331;-77
2023/03/18 01:37:10;;;;;;;79.20;36.60;;;;;;;-1.95;75.51;100955.36;1467714;88;21497;-77
2023/03/18 01:39:37;;;;;;;69.65;33.18;;;;;;;-1.98;75.05;100956.77;1463258;89;21294;-77
2023/03/18 01:42:04;;;;;;;65.30;33.48;;;;;;;-2.00;75.24;100955.97;1464796;89;21501;-77
2023/03/18 01:44:30;;;;;;;71.67;30.70;;;;;;;-2.05;75.51;100950.09;1459835;88;21374;-77
2023/03/18 01:46:57;;;;;;;60.48;27.42;;;;;;;-2.10;75.27;100952.00;1463393;88;22277;-78
2023/03/18 01:49:29;;;;;;;59.83;26.75;;;;;;;-2.12;74.95;100955.12;1456281;89;21589;-77
2023/03/18 01:52:00;;;;;;;81.70;37.13;;;;;;;-2.14;74.73;100953.02;1464164;89;21404;-77
2023/03/18 01:54:29;;;;;;;37.70;19.57;;;;;;;-2.19;75.32;100951.87;1458959;88;21441;-77
2023/03/18 01:56:56;;;;;;;54.38;25.37;;;;;;;-2.25;75.11;100951.25;1465263;88;21345;-77
2023/03/18 01:59:27;;;;;;;47.45;22.98;;;;;;;-2.28;75.31;100957.38;1464797;88;22904;-77
2023/03/18 02:02:11;;;;;;;46.33;21.87;;;;;;;-2.30;75.14;100956.61;1462380;88;21382;-77
2023/03/18 02:04:51;;;;;;;44.90;20.77;;;;;;;-2.35;75.28;100951.57;1466118;88;21352;-77
2023/03/18 02:07:25;;;;;;;52.80;26.62;;;;;;;-2.39;75.16;100952.55;1462351;88;21500;-77
2023/03/18 02:09:53;;;;;;;62.00;26.65;;;;;;;-2.43;74.70;100950.98;1461492;88;21455;-78
2023/03/18 02:12:28;;;;;;;51.42;25.88;;;;;;;-2.48;74.76;100955.47;1470967;88;21582;-77
2023/03/18 02:14:55;;;;;;;60.83;28.20;;;;;;;-2.52;74.77;100948.25;1462759;88;21420;-77
2023/03/18 02:17:26;;;;;;;55.38;26.15;;;;;;;-2.54;74.63;100949.20;1451268;88;22035;-78
2023/03/18 02:20:26;;;;;;;59.65;26.02;;;;;;;-2.56;75.13;100947.97;1459881;88;21412;-76
2023/03/18 02:22:57;;;;;;;52.08;25.85;;;;;;;-2.58;74.91;100946.33;1462130;88;21382;-79
2023/03/18 02:26:05;;;;;;;56.18;24.60;;;;;;;-2.63;75.44;100940.44;1405995;92;21525;-79
2023/03/18 02:28:35;;;;;;;51.18;25.05;;;;;;;-2.68;75.29;100944.92;1459325;88;21412;-79
2023/03/18 02:31:05;;;;;;;63.00;28.20;;;;;;;-2.70;75.68;100945.41;1459835;88;21361;-79
2023/03/18 02:33:38;;;;;;;54.00;26.62;;;;;;;-2.70;75.72;100946.70;1453708;89;22424;-79
2023/03/18 02:36:12;;;;;;;63.30;28.32;;;;;;;-2.68;75.10;100946.22;1459613;88;21375;-80
2023/03/18 02:38:44;;;;;;;50.67;26.40;;;;;;;-2.67;75.32;100940.16;1462591;88;22263;-80
2023/03/18 02:41:22;;;;;;;50.05;25.52;;;;;;;-2.66;76.09;100945.73;1460014;88;22092;-80
2023/03/18 02:43:49;;;;;;;45.48;22.62;;;;;;;-2.65;76.74;100942.23;1466484;88;22351;-79
2023/03/18 02:46:45;;;;;;;52.75;26.05;;;;;;;-2.66;76.55;100944.43;1466842;89;21375;-79
2023/03/18 02:49:13;;;;;;;52.38;24.50;;;;;;;-2.67;76.37;100952.66;1470608;89;21603;-79
2023/03/18 02:51:40;;;;;;;53.60;27.52;;;;;;;-2.66;76.89;100945.73;1449020;89;21427;-79
2023/03/18 02:54:12;;;;;;;60.30;25.77;;;;;;;-2.65;76.58;100950.00;1457702;88;21508;-80
2023/03/18 02:56:39;;;;;;;;;;;;;;;-2.64;76.61;100947.38;1460188;89;21433;-78
2023/03/18 02:59:06;;;;;;;53.25;24.63;;;;;;;-2.65;77.34;100944.81;1465481;89;20327;-79
2023/03/18 03:01:33;;;;;;;54.53;26.17;;;;;;;-2.65;77.43;100945.66;1464039;88;21316;-79
2023/03/18 03:04:01;;;;;;;60.23;26.90;;;;;;;-2.64;76.96;100940.05;1454898;89;21397;-79
2023/03/18 03:06:28;;;;;;;45.70;22.58;;;;;;;-2.64;76.63;100941.35;1463252;88;21502;-79
2023/03/18 03:08:56;;;;;;;52.70;25.72;;;;;;;-2.63;76.89;100941.73;1457009;88;22351;-79
2023/03/18 03:11:22;;;;;;;49.88;24.02;;;;;;;-2.60;76.20;100945.52;1465879;89;21353;-79
2023/03/18 03:13:49;;;;;;;42.93;22.90;;;;;;;-2.57;75.67;100935.05;1466127;88;21482;-78
2023/03/18 03:16:17;;;;;;;38.33;18.80;;;;;;;-2.54;75.28;100940.12;1453657;88;21405;-78
2023/03/18 03:18:43;;;;;;;42.78;21.77;;;;;;;-2.52;74.75;100940.48;1451810;89;21508;-78
2023/03/18 03:21:11;;;;;;;46.25;20.27;;;;;;;-2.52;74.61;100940.94;1459361;88;21476;-79
2023/03/18 03:23:39;;;;;;;42.48;19.85;;;;;;;-2.49;74.02;100947.30;1459702;88;21468;-79
2023/03/18 03:26:06;;;;;;;41.58;19.62;;;;;;;-2.44;73.93;100956.23;1454844;88;21404;-80
2023/03/18 03:28:32;;;;;;;39.15;19.00;;;;;;;-2.39;73.73;100955.15;1444975;89;21434;-79
2023/03/18 03:31:00;;;;;;;42.62;21.68;;;;;;;-2.36;73.67;100951.61;1456691;89;22367;-80
2023/03/18 03:33:27;;;;;;;44.65;20.90;;;;;;;-2.34;73.94;100957.59;1443713;90;21383;-79
2023/03/18 03:35:54;;;;;;;45.75;20.77;;;;;;;-2.34;73.64;100955.84;1459702;89;21633;-80
2023/03/18 03:38:21;;;;;;;42.75;20.45;;;;;;;-2.32;73.54;100955.81;1458382;89;21840;-79
2023/03/18 03:40:48;;;;;;;53.52;22.87;;;;;;;-2.32;73.81;100960.54;1458383;89;22039;-79
2023/03/18 03:43:15;;;;;;;43.87;20.52;;;;;;;-2.32;74.01;100961.84;1451875;89;21406;-80
2023/03/18 03:45:43;;;;;;;44.77;20.97;;;;;;;-2.31;73.53;100962.22;1456648;89;21479;-80
2023/03/18 03:48:10;;;;;;;45.92;20.37;;;;;;;-2.31;73.49;100968.70;1455622;89;21478;-80
2023/03/18 03:50:38;;;;;;;47.35;18.27;;;;;;;-2.27;73.60;100972.06;1456433;89;21361;-80
2023/03/18 03:53:05;;;;;;;38.80;15.48;;;;;;;-2.24;73.50;100965.47;1455604;89;21308;-80
2023/03/18 03:55:32;;;;;;;27.98;13.25;;;;;;;-2.18;73.46;100965.71;1451889;89;21490;-79
2023/03/18 03:57:59;;;;;;;26.30;10.93;;;;;;;-2.13;73.59;100966.38;1448368;89;21390;-79
2023/03/18 04:00:26;;;;;;;23.90;9.73;;;;;;;-2.07;73.92;100963.59;1449273;89;21509;-80
2023/03/18 04:02:53;;;;;;;19.50;10.23;;;;;;;-1.98;73.49;100958.07;1425821;91;22126;-80
2023/03/18 04:05:22;;;;;;;16.93;8.98;;;;;;;-1.90;73.56;100963.84;1451696;88;22315;-80
2023/03/18 04:07:50;;;;;;;15.85;8.90;;;;;;;-1.77;73.32;100968.58;1453871;90;21324;-80
2023/03/18 04:10:19;;;;;;;14.98;7.78;;;;;;;-1.68;72.92;100962.59;1430210;91;22310;-80
2023/03/18 04:12:46;;;;;;;17.05;7.97;;;;;;;-1.56;72.59;100970.37;1455496;89;21310;-80
2023/03/18 04:15:16;;;;;;;18.52;8.88;;;;;;;-1.49;72.22;100966.66;1449717;89;21486;-80
2023/03/18 04:17:43;;;;;;;16.02;8.18;;;;;;;-1.40;72.04;100966.30;1452219;89;22366;-80
2023/03/18 04:20:11;;;;;;;16.20;7.55;;;;;;;-1.32;71.79;100967.74;1446406;89;21456;-80
2023/03/18 04:22:37;;;;;;;20.88;7.95;;;;;;;-1.26;71.32;100968.84;1409382;91;21579;-79
2023/03/18 04:25:05;;;;;;;15.15;6.92;;;;;;;-1.21;71.21;100973.38;1453626;88;21464;-79
2023/03/18 04:27:32;;;;;;;15.00;8.08;;;;;;;-1.17;70.84;100981.46;1437194;91;21356;-79
2023/03/18 04:29:59;;;;;;;13.05;6.70;;;;;;;-1.14;70.70;100975.69;1428362;92;21384;-79
2023/03/18 04:32:26;;;;;;;15.63;8.05;;;;;;;-1.12;70.13;100976.94;1424396;92;21420;-80
2023/03/18 04:34:52;;;;;;;14.45;6.85;;;;;;;-1.05;70.18;100982.27;1429188;91;21384;-80
2023/03/18 04:37:19;;;;;;;18.60;8.55;;;;;;;-1.02;69.82;100984.75;1431497;91;21427;-79
2023/03/18 04:39:49;;;;;;;13.20;7.58;;;;;;;-1.02;69.78;100982.61;1428095;92;22353;-80
2023/03/18 04:42:16;;;;;;;22.50;11.97;;;;;;;-1.03;69.74;100984.83;1418745;91;21281;-80
2023/03/18 04:44:44;;;;;;;23.02;11.93;;;;;;;-1.04;69.51;100981.36;1429478;92;22607;-80
2023/03/18 04:47:11;;;;;;;41.70;23.00;;;;;;;-1.02;69.40;100980.02;1424195;92;21413;-80
2023/03/18 04:49:37;;;;;;;33.18;21.85;;;;;;;-1.02;69.55;100976.95;1413774;92;21406;-79
2023/03/18 04:52:06;;;;;;;24.20;13.83;;;;;;;-1.02;69.24;100982.16;1419680;92;21583;-79
2023/03/18 04:54:33;;;;;;;23.02;11.90;;;;;;;-0.99;68.78;100980.73;1408508;92;21553;-80
2023/03/18 04:56:59;;;;;;;28.70;11.43;;;;;;;-0.95;68.85;100986.22;1421936;91;21488;-79
2023/03/18 04:59:25;;;;;;;18.70;8.95;;;;;;;-0.92;68.70;100980.06;1406945;92;21568;-80
2023/03/18 05:01:52;;;;;;;19.95;9.85;;;;;;;-0.86;68.33;100978.94;1427559;91;21369;-78
2023/03/18 05:04:19;;;;;;;16.25;8.38;;;;;;;-0.80;68.04;100979.56;1426821;92;21362;-80
2023/03/18 05:06:45;;;;;;;17.75;8.83;;;;;;;-0.75;67.88;100985.86;1422154;92;22352;-80
2023/03/18 05:09:12;;;;;;;17.80;7.22;;;;;;;-0.67;67.89;100985.09;1424855;92;22316;-79
2023/03/18 05:11:38;;;;;;;16.23;6.55;;;;;;;-0.64;67.55;100986.73;1426894;92;21472;-79
2023/03/18 05:14:04;;;;;;;12.28;6.60;;;;;;;-0.56;67.47;100983.37;1428389;92;21355;-80
2023/03/18 05:16:30;;;;;;;13.22;6.60;;;;;;;-0.48;67.10;100985.20;1423540;92;22315;-79
2023/03/18 05:18:56;;;;;;;18.60;7.67;;;;;;;-0.40;66.62;100982.26;1430193;91;21525;-79
2023/03/18 05:21:23;;;;;;;13.72;6.28;;;;;;;-0.34;66.41;100981.57;1413539;92;21399;-80
2023/03/18 05:23:49;;;;;;;14.70;6.28;;;;;;;-0.27;65.85;100987.35;1427719;92;22397;-78
2023/03/18 05:26:16;;;;;;;10.43;5.83;;;;;;;-0.20;65.89;100986.63;1424846;91;21540;-80
2023/03/18 05:28:42;;;;;;;12.25;5.35;;;;;;;-0.13;65.72;100988.08;1446639;90;21487;-80
2023/03/18 05:31:08;;;;;;;10.20;5.35;;;;;;;-0.04;65.51;100994.17;1419991;91;21364;-79
2023/03/18 05:33:35;;;;;;;10.53;5.20;;;;;;;0.05;64.88;100992.47;1448639;90;21449;-79
2023/03/18 05:36:01;;;;;;;13.13;4.85;;;;;;;0.17;65.06;100999.77;1455677;90;21441;-79
2023/03/18 05:38:28;;;;;;;13.50;6.03;;;;;;;0.25;64.04;101001.17;1432414;91;22214;-79
2023/03/18 05:40:55;;;;;;;12.13;5.67;;;;;;;0.36;64.03;101007.59;1446493;88;21250;-80
2023/03/18 05:43:22;;;;;;;18.40;6.12;;;;;;;0.48;64.28;101004.06;1449663;89;21508;-78
2023/03/18 05:45:49;;;;;;;13.58;6.08;;;;;;;0.61;64.13;101014.32;1426648;91;21387;-79
2023/03/18 05:48:15;;;;;;;11.80;5.83;;;;;;;0.70;62.93;101019.57;1450902;89;21280;-80
2023/03/18 05:50:42;;;;;;;10.80;4.60;;;;;;;0.78;62.90;101010.48;1452551;89;22329;-80
2023/03/18 05:53:15;;;;;;;9.53;5.45;;;;;;;0.89;63.04;101017.35;1429592;91;21578;-80
2023/03/18 05:55:42;;;;;;;14.28;5.58;;;;;;;1.00;62.55;101013.38;1449311;89;21294;-80
2023/03/18 05:58:10;;;;;;;9.53;4.97;;;;;;;1.09;61.96;101014.25;1432508;91;22170;-78
2023/03/18 06:00:39;;;;;;;10.10;4.85;;;;;;;1.16;61.02;101013.05;1452690;89;21324;-80
2023/03/18 06:03:05;;;;;;;10.82;4.87;;;;;;;1.27;61.37;101011.25;1424247;91;21438;-79
2023/03/18 06:05:31;;;;;;;9.45;5.40;;;;;;;1.34;60.49;101013.47;1449862;88;21509;-78
2023/03/18 06:07:58;;;;;;;11.53;4.90;;;;;;;1.47;60.81;101012.42;1428712;91;21408;-80
2023/03/18 06:10:24;;;;;;;10.82;5.65;;;;;;;1.55;60.33;101006.37;1457887;89;21346;-79
2023/03/18 06:12:54;;;;;;;18.07;6.00;;;;;;;1.61;59.91;101007.81;1437412;91;22259;-75
2023/03/18 06:15:22;;;;;;;15.10;6.20;;;;;;;1.75;59.92;101009.73;1455272;90;22672;-76
2023/03/18 06:17:48;;;;;;;15.47;6.73;;;;;;;1.86;60.18;101010.04;1432729;91;21619;-76
2023/03/18 06:20:15;;;;;;;13.63;7.07;;;;;;;1.96;60.06;101011.28;1456862;88;22271;-76
2023/03/18 06:22:47;;;;;;;15.80;6.63;;;;;;;2.09;59.65;101014.09;1459135;89;22578;-76
2023/03/18 06:25:11;;;;;;;15.13;7.17;;;;;;;2.22;59.09;101009.93;1453764;89;21735;-76
2023/03/18 06:27:37;;;;;;;18.67;7.40;;;;;;;2.33;58.84;101008.51;1432087;91;21743;-76
2023/03/18 06:30:05;;;;;;;13.37;6.67;;;;;;;2.44;58.33;101012.24;1456613;89;21800;-77
2023/03/18 06:32:32;;;;;;;15.43;7.87;;;;;;;2.56;58.32;101019.92;1432055;91;21703;-76
2023/03/18 06:34:59;;;;;;;19.23;7.83;;;;;;;2.64;58.07;101020.33;1461884;88;21661;-76
2023/03/18 06:37:27;;;;;;;16.63;6.57;;;;;;;2.77;58.02;101014.00;1432813;91;21688;-76
2023/03/18 06:39:53;;;;;;;19.47;6.77;;;;;;;2.90;58.51;101016.77;1446740;89;21582;-74
2023/03/18 06:42:19;;;;;;;12.03;5.37;;;;;;;3.03;58.03;101019.10;1469883;89;21632;-75
2023/03/18 06:44:49;;;;;;;12.40;5.90;;;;;;;3.16;57.77;101018.81;1461987;89;22616;-75
2023/03/18 06:47:14;;;;;;;8.67;4.87;;;;;;;3.31;56.81;101024.08;1462375;89;21659;-74
2023/03/18 06:49:41;;;;;;;9.13;4.57;;;;;;;3.39;55.45;101021.44;1430564;91;21474;-75
2023/03/18 06:52:07;;;;;;;8.67;4.53;;;;;;;3.53;56.63;101025.03;1461304;89;21479;-75
2023/03/18 06:54:33;;;;;;;10.63;4.93;;;;;;;3.61;54.53;101026.27;1462116;89;22535;-78
2023/03/18 06:57:00;;;;;;;11.83;4.67;;;;;;;3.73;53.89;101025.19;1458706;89;21723;-79
2023/03/18 06:59:26;;;;;;;9.37;5.10;;;;;;;3.90;56.05;101028.98;1456554;89;21631;-79
2023/03/18 07:01:54;;;;;;;8.73;4.17;;;;;;;4.04;55.44;101025.08;1458847;89;21641;-79
2023/03/18 07:04:22;;;;;;;10.43;5.33;;;;;;;4.18;55.48;101028.19;1425438;91;21777;-79
2023/03/18 07:06:55;;;;;;;7.70;3.93;;;;;;;4.30;55.06;101022.68;1455664;88;21797;-81
2023/03/18 07:09:22;;;;;;;10.43;4.40;;;;;;;4.50;53.43;101020.99;1456429;89;22365;-80
2023/03/18 07:11:48;;;;;;;12.83;4.40;;;;;;;4.50;53.43;101020.99;1430491;91;22892;-80
2023/03/18 07:14:14;;;;;;;10.63;4.70;;;;;;;4.78;52.25;101026.33;1461140;89;21784;-80
2023/03/18 07:16:43;;;;;;;6.57;3.83;;;;;;;4.78;52.25;101026.33;1434284;91;22023;-80
2023/03/18 07:19:10;;;;;;;6.60;3.87;;;;;;;4.84;52.38;101025.47;1459073;88;21787;-80
2023/03/18 07:21:36;;;;;;;6.53;3.93;;;;;;;4.94;52.11;101027.87;1451585;89;22214;-80
2023/03/18 07:24:04;;;;;;;7.40;3.70;;;;;;;5.05;50.84;101035.06;1461766;89;22961;-80
2023/03/18 07:26:30;;;;;;;7.37;3.97;;;;;;;5.20;50.64;101034.55;1411548;91;22293;-79
2023/03/18 07:28:57;;;;;;;9.40;4.23;;;;;;;5.31;50.62;101033.40;1458749;88;22066;-79
2023/03/18 07:31:24;;;;;;;15.27;6.57;;;;;;;5.46;51.35;101039.91;1434532;91;22233;-82
2023/03/18 07:33:50;;;;;;;15.37;6.37;;;;;;;5.61;50.89;101040.21;1464735;89;22227;-82
2023/03/18 07:36:17;;;;;;;9.40;4.87;;;;;;;5.74;50.75;101045.05;1432195;91;22212;-82
2023/03/18 07:38:43;;;;;;;8.93;4.23;;;;;;;5.92;47.31;101035.56;1443670;89;23182;-80
2023/03/18 07:41:10;;;;;;;9.50;4.30;;;;;;;5.92;47.31;101035.56;1427612;91;21319;-79
2023/03/18 07:43:37;;;;;;;10.03;5.07;;;;;;;6.13;48.68;101046.44;1462957;89;21368;-80
2023/03/18 07:46:04;;;;;;;9.97;4.50;;;;;;;6.13;48.68;101046.44;1451949;89;22411;-81
2023/03/18 07:48:32;;;;;;;11.47;4.70;;;;;;;6.26;49.60;101060.45;1457937;89;21376;-80
2023/03/18 07:51:00;;;;;;;8.30;5.37;;;;;;;6.52;49.50;101058.66;1436301;91;21364;-80
2023/03/18 07:53:27;;;;;;;8.27;3.87;;;;;;;6.52;49.50;101058.66;1454962;88;22306;-80
2023/03/18 07:55:54;;;;;;;12.30;5.07;;;;;;;6.65;48.50;101060.81;1466425;89;21375;-80
2023/03/18 07:58:21;;;;;;;7.13;3.97;;;;;;;6.75;47.71;101056.58;1439920;91;21379;-80
2023/03/18 08:00:48;;;;;;;7.00;4.10;;;;;;;6.85;48.23;101058.55;1461042;88;21597;-80
2023/03/18 08:03:14;;;;;;;11.47;5.00;;;;;;;6.92;48.03;101063.77;1428816;91;21333;-80
2023/03/18 08:05:41;;;;;;;9.60;4.70;;;;;;;7.05;48.34;101060.64;1465194;88;21317;-80
2023/03/18 08:08:07;;;;;;;6.50;3.43;;;;;;;7.20;48.69;101068.75;1458457;89;21390;-81
2023/03/18 08:10:34;;;;;;;12.87;5.03;;;;;;;7.30;47.92;101061.50;1440432;91;21349;-80
2023/03/18 08:13:00;;;;;;;12.27;5.87;;;;;;;7.43;48.11;101072.36;1456520;88;21427;-80
2023/03/18 08:15:27;;;;;;;11.00;5.40;;;;;;;7.58;47.83;101070.87;1427136;91;21533;-81
2023/03/18 08:17:53;;;;;;;6.73;4.40;;;;;;;7.67;46.93;101072.34;1452553;88;21500;-80
2023/03/18 08:20:20;;;;;;;7.77;4.40;;;;;;;7.79;47.08;101072.39;1439949;91;21534;-80
2023/03/18 08:22:47;;;;;;;9.07;5.13;;;;;;;7.94;47.46;101069.95;1463145;89;21331;-80
2023/03/18 08:25:13;;;;;;;7.93;4.80;;;;;;;8.07;47.23;101069.38;1415622;91;21673;-80
2023/03/18 08:27:39;;;;;;;7.57;4.23;;;;;;;8.22;47.39;101067.37;1459098;88;21523;-79
2023/03/18 08:30:08;;;;;;;9.17;4.80;;;;;;;8.40;47.48;101065.17;1422644;91;21519;-80
2023/03/18 08:32:34;;;;;;;10.50;5.17;;;;;;;8.51;46.49;101077.03;1448592;88;22374;-79
2023/03/18 08:35:01;;;;;;;8.00;3.90;;;;;;;8.60;46.04;101072.84;1460829;89;21435;-82
2023/03/18 08:37:28;;;;;;;13.33;6.80;;;;;;;8.74;46.22;101064.69;1433787;91;21468;-78
2023/03/18 08:39:54;;;;;;;12.23;6.77;;;;;;;8.84;45.31;101067.95;1456772;88;22459;-78
2023/03/18 08:42:20;;;;;;;8.60;5.43;;;;;;;8.91;43.87;101069.97;1409758;91;21537;-78
2023/03/18 08:44:47;;;;;;;11.33;6.13;;;;;;;9.08;45.53;101064.67;1452030;88;21317;-77
2023/03/18 08:47:14;;;;;;;10.37;5.47;;;;;;;9.22;45.58;101071.50;1427762;91;21563;-78
2023/03/18 08:49:40;;;;;;;12.93;5.40;;;;;;;9.35;45.50;101068.70;1451135;89;21427;-78
2023/03/18 08:52:07;;;;;;;8.27;5.07;;;;;;;9.34;43.84;101065.22;1430060;91;21408;-78
2023/03/18 08:54:34;;;;;;;11.23;5.83;;;;;;;9.28;42.08;101062.24;1450347;88;22459;-78
2023/03/18 08:57:00;;;;;;;6.83;4.50;;;;;;;9.49;44.93;101067.95;1426863;91;21904;-78
2023/03/18 08:59:27;;;;;;;9.10;4.60;;;;;;;9.57;43.99;101059.88;1449732;90;22248;-78
2023/03/18 09:01:53;;;;;;;9.83;5.07;;;;;;;9.81;44.81;101066.25;1429970;91;21379;-78
2023/03/18 09:04:19;;;;;;;9.57;4.67;;;;;;;9.97;44.59;101067.16;1451511;90;21361;-78
2023/03/18 09:06:47;;;;;;;12.73;4.97;;;;;;;10.16;44.19;101068.63;1450674;89;21427;-78
2023/03/18 09:09:14;;;;;;;8.63;4.47;;;;;;;10.22;43.48;101060.16;1431158;91;22480;-77
2023/03/18 09:11:41;;;;;;;8.20;4.10;;;;;;;10.33;43.55;101061.45;1455029;89;21391;-77
2023/03/18 09:14:07;;;;;;;6.87;4.40;;;;;;;10.45;43.67;101061.38;1430695;91;21570;-80
2023/03/18 09:16:34;;;;;;;10.77;4.40;;;;;;;10.53;42.81;101057.55;1457255;90;21375;-80
2023/03/18 09:19:01;;;;;;;10.00;5.03;;;;;;;10.63;42.26;101057.13;1429037;91;21445;-80
2023/03/18 09:21:27;;;;;;;11.07;4.50;;;;;;;10.68;42.76;101054.10;1455793;88;22285;-80
2023/03/18 09:23:53;;;;;;;8.27;4.73;;;;;;;10.80;42.38;101056.50;1447832;90;22439;-80
2023/03/18 09:26:20;;;;;;;8.20;5.33;;;;;;;10.92;43.16;101053.76;1457184;90;21383;-80
2023/03/18 09:28:47;;;;;;;11.43;4.27;;;;;;;11.11;41.76;101055.15;1434072;91;21592;-80
2023/03/18 09:31:14;;;;;;;9.53;4.87;;;;;;;11.22;41.19;101053.71;1460117;89;21412;-80
2023/03/18 09:33:42;;;;;;;6.43;3.90;;;;;;;11.36;41.86;101048.97;1461386;89;21457;-80
2023/03/18 09:36:09;;;;;;;9.07;4.10;;;;;;;11.35;37.90;101049.95;1456790;89;21524;-80
2023/03/18 09:38:36;;;;;;;9.80;4.00;;;;;;;11.45;40.70;101043.70;1435980;91;21348;-80
2023/03/18 09:41:10;;;;;;;6.57;4.40;;;;;;;11.65;40.92;101049.86;1457615;88;21519;-80
2023/03/18 09:44:25;;;;;;;7.17;3.40;;;;;;;11.77;39.81;101044.38;1458342;89;21604;-81
2023/03/18 09:47:12;;;;;;;12.77;4.13;;;;;;;11.77;39.90;101047.89;1462270;89;21449;-80
2023/03/18 09:49:58;;;;;;;10.37;3.80;;;;;;;11.91;39.80;101041.33;1398757;93;22448;-80
2023/03/18 09:52:36;;;;;;;7.67;3.40;;;;;;;11.98;39.32;101043.78;1399024;93;21472;-81
2023/03/18 09:55:28;;;;;;;4.97;3.20;;;;;;;12.01;39.00;101038.19;1408004;93;21587;-81
2023/03/18 09:58:01;;;;;;;7.30;2.90;;;;;;;11.98;38.34;101045.11;1405615;93;21472;-81
2023/03/18 10:00:32;;;;;;;7.13;3.80;;;;;;;11.94;36.69;101042.41;1404565;93;21955;-80
2023/03/18 10:03:12;;;;;;;9.10;3.83;;;;;;;11.93;39.18;101043.36;1401378;93;21487;-81
2023/03/18 10:05:55;;;;;;;10.77;4.60;;;;;;;12.07;38.89;101044.25;1393348;93;21487;-81
2023/03/18 10:08:56;;;;;;;8.30;4.30;;;;;;;12.29;38.89;101040.94;1401735;93;21687;-80
2023/03/18 10:11:42;;;;;;;7.03;3.75;;;;;;;12.39;38.46;101036.42;1401615;93;21546;-81
2023/03/18 10:14:42;;;;;;;6.40;4.27;;;;;;;12.57;38.77;101029.86;1402099;93;23068;-80
2023/03/18 10:17:40;;;;;;;6.80;3.75;;;;;;;12.82;38.38;101025.20;1401058;93;21473;-78
2023/03/18 10:20:40;;;;;;;6.33;3.80;;;;;;;12.80;37.45;101023.21;1369528;95;21645;-79
2023/03/18 10:23:15;;;;;;;6.90;4.30;;;;;;;12.73;35.25;101019.95;1348780;97;21456;-80
2023/03/18 10:25:55;;;;;;;7.70;3.70;;;;;;;12.79;36.01;101014.05;1360109;92;21763;-79
2023/03/18 10:28:33;;;;;;;7.20;3.27;;;;;;;12.76;37.13;101015.67;1458311;89;21434;-79
2023/03/18 10:31:19;;;;;;;6.90;3.20;;;;;;;12.67;34.69;101008.59;1440323;91;21465;-79
2023/03/18 10:34:15;;;;;;;6.10;3.30;;;;;;;12.77;36.27;101014.18;1416954;92;22318;-79
2023/03/18 10:37:15;;;;;;;5.10;3.23;;;;;;;12.94;36.81;101011.73;1430345;92;22411;-80
2023/03/18 10:39:44;;;;;;;12.93;3.55;;;;;;;13.14;36.77;101005.80;1423057;92;21458;-79
2023/03/18 10:42:26;;;;;;;6.13;3.73;;;;;;;13.38;37.41;101005.23;1424440;92;21587;-80
2023/03/18 10:44:58;;;;;;;5.67;3.70;;;;;;;13.35;36.98;101014.38;1423114;91;21841;-82
2023/03/18 10:47:30;;;;;;;6.00;4.10;;;;;;;13.57;35.60;101006.91;1421077;92;22404;-76
2023/03/18 10:50:14;;;;;;;9.53;3.93;;;;;;;13.63;35.41;101003.63;1425597;92;21579;-79
2023/03/18 10:52:55;;;;;;;5.47;3.10;;;;;;;13.70;35.63;101004.70;1423564;91;22055;-79
2023/03/18 10:55:27;;;;;;;7.50;4.13;;;;;;;13.68;34.93;100996.03;1421769;92;21657;-79
2023/03/18 10:57:54;;;;;;;7.90;3.90;;;;;;;13.71;33.49;100994.40;1421016;92;21606;-78
2023/03/18 11:00:32;;;;;;;5.10;3.40;;;;;;;13.75;34.94;100991.75;1427668;91;22265;-79
2023/03/18 11:03:00;;;;;;;5.17;3.67;;;;;;;13.87;34.45;100993.20;1423626;91;21332;-79
2023/03/18 11:05:32;;;;;;;7.27;3.77;;;;;;;13.86;33.96;100986.19;1425631;92;22329;-79
2023/03/18 11:08:09;;;;;;;8.90;3.77;;;;;;;13.47;33.84;100983.90;1416192;92;22339;-79
2023/03/18 11:10:40;;;;;;;7.70;4.37;;;;;;;13.58;35.32;100977.52;1419738;92;21550;-80
2023/03/18 11:13:06;;;;;;;6.20;3.97;;;;;;;13.81;34.62;100971.68;1408980;92;22469;-81
2023/03/18 11:15:44;;;;;;;8.67;4.20;;;;;;;14.03;35.58;100968.52;1422649;92;21442;-81
2023/03/18 11:18:15;;;;;;;5.87;3.47;;;;;;;14.23;36.01;100965.97;1426670;92;21628;-81
2023/03/18 11:20:44;;;;;;;4.73;3.53;;;;;;;14.57;35.26;100968.33;1424357;91;21991;-79
2023/03/18 11:23:45;;;;;;;7.93;4.93;;;;;;;14.89;35.06;100963.59;1422639;91;21488;-81
2023/03/18 11:25:59;;;;;;;7.93;3.80;;;;;;;15.19;34.69;100959.51;1421419;92;21457;-81
2023/03/18 11:28:28;;;;;;;5.93;4.40;;;;;;;15.20;33.73;100961.17;1418930;92;22309;-81
2023/03/18 11:30:59;;;;;;;9.13;4.20;;;;;;;15.35;34.08;100965.34;1448831;90;21479;-81